sensor_id;sensor_type;location;lat;lon;timestamp;P1;durP1;ratioP1;P2;durP2;ratioP2
20593;SDS011;10455;48.732;10.266;2024-02-15T00:03:37;7.53;;;4.33;;
20593;SDS011;10455;48.732;10.266;2024-02-15T00:08:40;3.80;;;3.50;;
20593;SDS011;10455;48.732;10.266;2024-02-15T00:13:42;3.80;;;3.50;;
20593;SDS011;10455;48.732;10.266;2024-02-15T00:18:44;3.67;;;3.37;;
20593;SDS011;10455;48.732;10.266;2024-02-15T00:23:47;4.93;;;3.23;;
20593;SDS011;10455;48.732;10.266;2024-02-15T00:28:49;5.23;;;3.60;;
20593;SDS011;10455;48.732;10.266;2024-02-15T00:33:51;3.97;;;3.53;;
20593;SDS011;10455;48.732;10.266;2024-02-15T00:38:55;4.03;;;3.70;;
20593;SDS011;10455;48.732;10.266;2024-02-15T00:43:57;3.73;;;3.47;;
20593;SDS011;10455;48.732;10.266;2024-02-15T00:48:59;4.40;;;3.70;;
20593;SDS011;10455;48.732;10.266;2024-02-15T00:54:03;5.67;;;3.60;;
20593;SDS011;10455;48.732;10.266;2024-02-15T00:59:05;4.43;;;3.70;;
20593;SDS011;10455;48.732;10.266;2024-02-15T01:04:08;4.77;;;3.80;;
20593;SDS011;10455;48.732;10.266;2024-02-15T01:09:12;4.13;;;3.73;;
20593;SDS011;10455;48.732;10.266;2024-02-15T01:14:14;3.93;;;3.57;;
20593;SDS011;10455;48.732;10.266;2024-02-15T01:19:16;4.20;;;3.80;;
20593;SDS011;10455;48.732;10.266;2024-02-15T01:24:19;4.83;;;3.77;;
20593;SDS011;10455;48.732;10.266;2024-02-15T01:29:21;4.50;;;4.17;;
20593;SDS011;10455;48.732;10.266;2024-02-15T01:34:25;5.13;;;4.20;;
20593;SDS011;10455;48.732;10.266;2024-02-15T01:39:29;4.07;;;3.53;;
20593;SDS011;10455;48.732;10.266;2024-02-15T01:44:31;4.73;;;4.33;;
20593;SDS011;10455;48.732;10.266;2024-02-15T01:49:32;3.90;;;3.60;;
20593;SDS011;10455;48.732;10.266;2024-02-15T01:54:36;4.10;;;3.70;;
20593;SDS011;10455;48.732;10.266;2024-02-15T01:59:38;5.27;;;4.00;;
20593;SDS011;10455;48.732;10.266;2024-02-15T02:04:41;4.30;;;3.90;;
20593;SDS011;10455;48.732;10.266;2024-02-15T02:09:45;4.03;;;3.63;;
20593;SDS011;10455;48.732;10.266;2024-02-15T02:14:49;3.97;;;3.50;;
20593;SDS011;10455;48.732;10.266;2024-02-15T02:19:51;5.33;;;4.07;;
20593;SDS011;10455;48.732;10.266;2024-02-15T02:25:03;3.97;;;3.57;;
20593;SDS011;10455;48.732;10.266;2024-02-15T02:30:12;4.50;;;4.00;;
20593;SDS011;10455;48.732;10.266;2024-02-15T02:35:17;5.90;;;4.20;;
20593;SDS011;10455;48.732;10.266;2024-02-15T02:40:22;4.27;;;3.70;;
20593;SDS011;10455;48.732;10.266;2024-02-15T02:45:24;4.70;;;4.27;;
20593;SDS011;10455;48.732;10.266;2024-02-15T02:50:26;4.40;;;3.97;;
20593;SDS011;10455;48.732;10.266;2024-02-15T02:55:29;5.00;;;3.80;;
20593;SDS011;10455;48.732;10.266;2024-02-15T03:00:31;4.60;;;3.90;;
20593;SDS011;10455;48.732;10.266;2024-02-15T03:05:33;4.00;;;3.50;;
20593;SDS011;10455;48.732;10.266;2024-02-15T03:10:36;4.27;;;3.30;;
20593;SDS011;10455;48.732;10.266;2024-02-15T03:15:38;4.57;;;4.07;;
20593;SDS011;10455;48.732;10.266;2024-02-15T03:20:41;4.20;;;3.90;;
20593;SDS011;10455;48.732;10.266;2024-02-15T03:25:45;4.17;;;3.83;;
20593;SDS011;10455;48.732;10.266;2024-02-15T03:30:46;5.83;;;4.20;;
20593;SDS011;10455;48.732;10.266;2024-02-15T03:35:49;4.50;;;4.10;;
20593;SDS011;10455;48.732;10.266;2024-02-15T03:40:53;4.13;;;3.83;;
20593;SDS011;10455;48.732;10.266;2024-02-15T03:45:55;4.53;;;4.23;;
20593;SDS011;10455;48.732;10.266;2024-02-15T03:50:57;4.43;;;4.03;;
20593;SDS011;10455;48.732;10.266;2024-02-15T03:56:01;4.97;;;4.47;;
20593;SDS011;10455;48.732;10.266;2024-02-15T04:01:03;4.67;;;4.27;;
20593;SDS011;10455;48.732;10.266;2024-02-15T04:06:06;5.13;;;4.53;;
20593;SDS011;10455;48.732;10.266;2024-02-15T04:11:10;5.17;;;4.77;;
20593;SDS011;10455;48.732;10.266;2024-02-15T04:16:12;5.20;;;4.80;;
20593;SDS011;10455;48.732;10.266;2024-02-15T04:21:14;5.47;;;4.80;;
20593;SDS011;10455;48.732;10.266;2024-02-15T04:26:18;6.33;;;5.00;;
20593;SDS011;10455;48.732;10.266;2024-02-15T04:31:20;5.50;;;5.10;;
20593;SDS011;10455;48.732;10.266;2024-02-15T04:36:26;6.10;;;5.50;;
20593;SDS011;10455;48.732;10.266;2024-02-15T04:41:34;7.50;;;6.80;;
20593;SDS011;10455;48.732;10.266;2024-02-15T04:46:39;6.57;;;6.00;;
20593;SDS011;10455;48.732;10.266;2024-02-15T04:51:41;6.40;;;5.80;;
20593;SDS011;10455;48.732;10.266;2024-02-15T04:56:45;7.43;;;6.20;;
20593;SDS011;10455;48.732;10.266;2024-02-15T05:01:47;6.97;;;6.37;;
20593;SDS011;10455;48.732;10.266;2024-02-15T05:06:49;8.73;;;7.93;;
20593;SDS011;10455;48.732;10.266;2024-02-15T05:11:53;8.47;;;7.77;;
20593;SDS011;10455;48.732;10.266;2024-02-15T05:16:55;11.63;;;9.73;;
20593;SDS011;10455;48.732;10.266;2024-02-15T05:21:56;7.03;;;6.33;;
20593;SDS011;10455;48.732;10.266;2024-02-15T05:27:00;8.60;;;6.83;;
20593;SDS011;10455;48.732;10.266;2024-02-15T05:32:02;6.23;;;5.63;;
20593;SDS011;10455;48.732;10.266;2024-02-15T05:37:05;5.20;;;4.70;;
20593;SDS011;10455;48.732;10.266;2024-02-15T05:42:09;5.30;;;4.80;;
20593;SDS011;10455;48.732;10.266;2024-02-15T05:47:11;8.33;;;6.20;;
20593;SDS011;10455;48.732;10.266;2024-02-15T05:52:13;6.07;;;5.23;;
20593;SDS011;10455;48.732;10.266;2024-02-15T05:57:16;6.20;;;5.07;;
20593;SDS011;10455;48.732;10.266;2024-02-15T06:02:18;6.37;;;5.70;;
20593;SDS011;10455;48.732;10.266;2024-02-15T06:07:20;6.90;;;5.60;;
20593;SDS011;10455;48.732;10.266;2024-02-15T06:12:23;7.00;;;6.27;;
20593;SDS011;10455;48.732;10.266;2024-02-15T06:17:25;8.27;;;6.20;;
20593;SDS011;10455;48.732;10.266;2024-02-15T06:22:27;6.30;;;5.70;;
20593;SDS011;10455;48.732;10.266;2024-02-15T06:27:32;10.47;;;7.10;;
20593;SDS011;10455;48.732;10.266;2024-02-15T06:32:36;8.93;;;6.33;;
20593;SDS011;10455;48.732;10.266;2024-02-15T06:37:56;7.27;;;6.60;;
20593;SDS011;10455;48.732;10.266;2024-02-15T06:43:16;8.67;;;7.87;;
20593;SDS011;10455;48.732;10.266;2024-02-15T06:48:18;8.70;;;6.67;;
20593;SDS011;10455;48.732;10.266;2024-02-15T06:53:20;9.10;;;7.13;;
20593;SDS011;10455;48.732;10.266;2024-02-15T06:58:24;10.30;;;6.20;;
20593;SDS011;10455;48.732;10.266;2024-02-15T07:03:27;6.87;;;5.57;;
20593;SDS011;10455;48.732;10.266;2024-02-15T07:08:32;6.47;;;5.87;;
20593;SDS011;10455;48.732;10.266;2024-02-15T07:13:35;6.30;;;5.60;;
20593;SDS011;10455;48.732;10.266;2024-02-15T07:18:38;5.20;;;4.70;;
20593;SDS011;10455;48.732;10.266;2024-02-15T07:23:40;6.37;;;4.67;;
20593;SDS011;10455;48.732;10.266;2024-02-15T07:28:44;5.13;;;4.63;;
20593;SDS011;10455;48.732;10.266;2024-02-15T07:33:48;5.53;;;5.03;;
20593;SDS011;10455;48.732;10.266;2024-02-15T07:38:53;6.03;;;5.07;;
20593;SDS011;10455;48.732;10.266;2024-02-15T07:43:59;10.23;;;9.33;;
20593;SDS011;10455;48.732;10.266;2024-02-15T07:49:01;11.33;;;10.17;;
20593;SDS011;10455;48.732;10.266;2024-02-15T07:54:03;6.23;;;5.73;;
20593;SDS011;10455;48.732;10.266;2024-02-15T07:59:07;7.57;;;6.83;;
20593;SDS011;10455;48.732;10.266;2024-02-15T08:04:09;8.43;;;7.33;;
20593;SDS011;10455;48.732;10.266;2024-02-15T08:09:11;17.90;;;13.90;;
20593;SDS011;10455;48.732;10.266;2024-02-15T08:14:15;12.50;;;10.60;;
20593;SDS011;10455;48.732;10.266;2024-02-15T08:19:17;12.40;;;10.53;;
20593;SDS011;10455;48.732;10.266;2024-02-15T08:24:19;10.27;;;9.20;;
20593;SDS011;10455;48.732;10.266;2024-02-15T08:29:22;9.53;;;8.63;;
20593;SDS011;10455;48.732;10.266;2024-02-15T08:34:24;7.73;;;6.37;;
20593;SDS011;10455;48.732;10.266;2024-02-15T08:39:26;7.50;;;6.60;;
20593;SDS011;10455;48.732;10.266;2024-02-15T08:44:29;6.20;;;5.60;;
20593;SDS011;10455;48.732;10.266;2024-02-15T08:49:31;5.87;;;5.27;;
20593;SDS011;10455;48.732;10.266;2024-02-15T08:54:32;5.33;;;4.90;;
20593;SDS011;10455;48.732;10.266;2024-02-15T08:59:36;5.82;;;5.07;;
20593;SDS011;10455;48.732;10.266;2024-02-15T09:04:38;5.45;;;4.97;;
20593;SDS011;10455;48.732;10.266;2024-02-15T09:09:41;6.05;;;4.63;;
20593;SDS011;10455;48.732;10.266;2024-02-15T09:14:44;6.07;;;5.47;;
20593;SDS011;10455;48.732;10.266;2024-02-15T09:19:47;6.63;;;5.32;;
20593;SDS011;10455;48.732;10.266;2024-02-15T09:24:50;3.70;;;3.40;;
20593;SDS011;10455;48.732;10.266;2024-02-15T09:29:53;3.75;;;3.45;;
20593;SDS011;10455;48.732;10.266;2024-02-15T09:34:56;4.18;;;3.80;;
20593;SDS011;10455;48.732;10.266;2024-02-15T09:39:58;3.75;;;3.45;;
20593;SDS011;10455;48.732;10.266;2024-02-15T09:45:08;4.70;;;4.25;;
20593;SDS011;10455;48.732;10.266;2024-02-15T09:50:11;5.53;;;5.00;;
20593;SDS011;10455;48.732;10.266;2024-02-15T09:55:14;4.55;;;4.10;;
20593;SDS011;10455;48.732;10.266;2024-02-15T10:00:19;4.50;;;4.20;;
20593;SDS011;10455;48.732;10.266;2024-02-15T10:05:21;3.58;;;3.28;;
20593;SDS011;10455;48.732;10.266;2024-02-15T10:10:24;4.28;;;3.88;;
20593;SDS011;10455;48.732;10.266;2024-02-15T10:15:28;4.90;;;4.45;;
20593;SDS011;10455;48.732;10.266;2024-02-15T10:20:35;5.38;;;3.72;;
20593;SDS011;10455;48.732;10.266;2024-02-15T10:25:39;5.38;;;4.88;;
20593;SDS011;10455;48.732;10.266;2024-02-15T10:30:43;4.65;;;4.25;;
20593;SDS011;10455;48.732;10.266;2024-02-15T10:35:48;4.78;;;4.38;;
20593;SDS011;10455;48.732;10.266;2024-02-15T10:40:50;4.45;;;4.05;;
20593;SDS011;10455;48.732;10.266;2024-02-15T10:46:06;5.43;;;4.10;;
20593;SDS011;10455;48.732;10.266;2024-02-15T10:51:10;4.22;;;3.67;;
20593;SDS011;10455;48.732;10.266;2024-02-15T10:56:18;4.43;;;4.03;;
20593;SDS011;10455;48.732;10.266;2024-02-15T11:01:26;4.47;;;3.53;;
20593;SDS011;10455;48.732;10.266;2024-02-15T11:06:30;4.22;;;3.60;;
20593;SDS011;10455;48.732;10.266;2024-02-15T11:11:36;4.45;;;4.05;;
20593;SDS011;10455;48.732;10.266;2024-02-15T11:16:41;3.83;;;3.42;;
20593;SDS011;10455;48.732;10.266;2024-02-15T11:21:53;5.00;;;3.72;;
20593;SDS011;10455;48.732;10.266;2024-02-15T11:26:57;4.63;;;4.20;;
20593;SDS011;10455;48.732;10.266;2024-02-15T11:32:04;4.32;;;3.88;;
20593;SDS011;10455;48.732;10.266;2024-02-15T11:37:07;7.40;;;3.60;;
20593;SDS011;10455;48.732;10.266;2024-02-15T11:47:35;3.45;;;3.10;;
20593;SDS011;10455;48.732;10.266;2024-02-15T11:52:39;2.85;;;2.65;;
20593;SDS011;10455;48.732;10.266;2024-02-15T11:57:42;3.25;;;3.03;;
20593;SDS011;10455;48.732;10.266;2024-02-15T12:02:52;3.38;;;3.17;;
20593;SDS011;10455;48.732;10.266;2024-02-15T12:08:11;3.25;;;2.95;;
20593;SDS011;10455;48.732;10.266;2024-02-15T12:13:30;5.38;;;3.00;;
20593;SDS011;10455;48.732;10.266;2024-02-15T12:18:51;3.67;;;3.35;;
20593;SDS011;10455;48.732;10.266;2024-02-15T12:23:54;3.50;;;3.20;;
20593;SDS011;10455;48.732;10.266;2024-02-15T12:28:56;3.83;;;3.53;;
20593;SDS011;10455;48.732;10.266;2024-02-15T12:34:01;4.85;;;3.65;;
20593;SDS011;10455;48.732;10.266;2024-02-15T12:39:06;4.00;;;3.50;;
20593;SDS011;10455;48.732;10.266;2024-02-15T12:44:13;3.60;;;3.40;;
20593;SDS011;10455;48.732;10.266;2024-02-15T12:49:28;3.63;;;3.33;;
20593;SDS011;10455;48.732;10.266;2024-02-15T12:54:32;3.53;;;3.10;;
20593;SDS011;10455;48.732;10.266;2024-02-15T12:59:34;3.63;;;3.33;;
20593;SDS011;10455;48.732;10.266;2024-02-15T13:04:38;3.85;;;3.50;;
20593;SDS011;10455;48.732;10.266;2024-02-15T13:09:40;3.88;;;3.58;;
20593;SDS011;10455;48.732;10.266;2024-02-15T13:14:42;3.53;;;3.20;;
20593;SDS011;10455;48.732;10.266;2024-02-15T13:19:46;3.70;;;3.28;;
20593;SDS011;10455;48.732;10.266;2024-02-15T13:24:49;3.90;;;3.40;;
20593;SDS011;10455;48.732;10.266;2024-02-15T13:29:51;3.97;;;3.20;;
20593;SDS011;10455;48.732;10.266;2024-02-15T13:34:54;3.95;;;3.55;;
20593;SDS011;10455;48.732;10.266;2024-02-15T13:39:59;4.35;;;3.90;;
20593;SDS011;10455;48.732;10.266;2024-02-15T13:45:01;5.50;;;3.88;;
20593;SDS011;10455;48.732;10.266;2024-02-15T13:50:05;6.28;;;3.97;;
20593;SDS011;10455;48.732;10.266;2024-02-15T13:55:08;4.07;;;3.67;;
20593;SDS011;10455;48.732;10.266;2024-02-15T14:00:12;4.18;;;3.78;;
20593;SDS011;10455;48.732;10.266;2024-02-15T14:05:23;4.30;;;3.90;;
20593;SDS011;10455;48.732;10.266;2024-02-15T14:10:28;4.10;;;3.70;;
20593;SDS011;10455;48.732;10.266;2024-02-15T14:15:31;4.30;;;3.90;;
20593;SDS011;10455;48.732;10.266;2024-02-15T14:20:38;4.45;;;3.78;;
20593;SDS011;10455;48.732;10.266;2024-02-15T14:25:43;3.78;;;3.47;;
20593;SDS011;10455;48.732;10.266;2024-02-15T14:30:46;4.10;;;3.70;;
20593;SDS011;10455;48.732;10.266;2024-02-15T14:36:07;4.20;;;3.80;;
20593;SDS011;10455;48.732;10.266;2024-02-15T14:41:09;5.75;;;4.10;;
20593;SDS011;10455;48.732;10.266;2024-02-15T14:46:11;4.70;;;4.15;;
20593;SDS011;10455;48.732;10.266;2024-02-15T14:51:16;4.88;;;4.30;;
20593;SDS011;10455;48.732;10.266;2024-02-15T14:56:19;4.50;;;4.10;;
20593;SDS011;10455;48.732;10.266;2024-02-15T15:01:21;4.57;;;4.18;;
20593;SDS011;10455;48.732;10.266;2024-02-15T15:06:25;5.22;;;4.20;;
20593;SDS011;10455;48.732;10.266;2024-02-15T15:11:45;4.80;;;4.38;;
20593;SDS011;10455;48.732;10.266;2024-02-15T15:17:04;5.40;;;5.00;;
20593;SDS011;10455;48.732;10.266;2024-02-15T15:22:08;4.90;;;4.50;;
20593;SDS011;10455;48.732;10.266;2024-02-15T15:27:09;6.82;;;4.70;;
20593;SDS011;10455;48.732;10.266;2024-02-15T15:32:12;5.00;;;4.50;;
20593;SDS011;10455;48.732;10.266;2024-02-15T15:37:16;5.10;;;4.60;;
20593;SDS011;10455;48.732;10.266;2024-02-15T15:42:18;5.80;;;4.50;;
20593;SDS011;10455;48.732;10.266;2024-02-15T15:47:20;4.63;;;4.22;;
20593;SDS011;10455;48.732;10.266;2024-02-15T15:52:24;7.35;;;4.80;;
20593;SDS011;10455;48.732;10.266;2024-02-15T15:57:26;4.72;;;4.35;;
20593;SDS011;10455;48.732;10.266;2024-02-15T16:02:28;4.68;;;4.15;;
20593;SDS011;10455;48.732;10.266;2024-02-15T16:07:32;4.95;;;4.35;;
20593;SDS011;10455;48.732;10.266;2024-02-15T16:12:34;5.22;;;4.82;;
20593;SDS011;10455;48.732;10.266;2024-02-15T16:17:36;5.30;;;4.70;;
20593;SDS011;10455;48.732;10.266;2024-02-15T16:22:41;5.97;;;4.50;;
20593;SDS011;10455;48.732;10.266;2024-02-15T16:27:43;5.65;;;4.50;;
20593;SDS011;10455;48.732;10.266;2024-02-15T16:32:46;4.85;;;4.35;;
20593;SDS011;10455;48.732;10.266;2024-02-15T16:37:49;4.63;;;4.22;;
20593;SDS011;10455;48.732;10.266;2024-02-15T16:42:52;5.57;;;4.47;;
20593;SDS011;10455;48.732;10.266;2024-02-15T16:47:57;4.60;;;4.20;;
20593;SDS011;10455;48.732;10.266;2024-02-15T16:53:02;4.78;;;4.35;;
20593;SDS011;10455;48.732;10.266;2024-02-15T16:58:04;7.53;;;5.80;;
20593;SDS011;10455;48.732;10.266;2024-02-15T17:03:08;7.13;;;4.70;;
20593;SDS011;10455;48.732;10.266;2024-02-15T17:08:15;7.97;;;5.47;;
20593;SDS011;10455;48.732;10.266;2024-02-15T17:13:17;6.70;;;5.37;;
20593;SDS011;10455;48.732;10.266;2024-02-15T17:18:19;6.60;;;5.87;;
20593;SDS011;10455;48.732;10.266;2024-02-15T17:23:22;9.77;;;5.70;;
20593;SDS011;10455;48.732;10.266;2024-02-15T17:28:24;7.13;;;6.40;;
20593;SDS011;10455;48.732;10.266;2024-02-15T17:33:26;10.17;;;7.90;;
20593;SDS011;10455;48.732;10.266;2024-02-15T17:38:30;9.40;;;8.47;;
20593;SDS011;10455;48.732;10.266;2024-02-15T17:43:33;9.90;;;9.00;;
20593;SDS011;10455;48.732;10.266;2024-02-15T17:48:35;13.60;;;12.30;;
20593;SDS011;10455;48.732;10.266;2024-02-15T17:53:38;15.53;;;14.13;;
20593;SDS011;10455;48.732;10.266;2024-02-15T17:58:41;15.00;;;13.50;;
20593;SDS011;10455;48.732;10.266;2024-02-15T18:03:44;12.67;;;11.37;;
20593;SDS011;10455;48.732;10.266;2024-02-15T18:08:47;15.87;;;14.30;;
20593;SDS011;10455;48.732;10.266;2024-02-15T18:13:50;13.53;;;11.20;;
20593;SDS011;10455;48.732;10.266;2024-02-15T18:18:52;26.63;;;16.43;;
20593;SDS011;10455;48.732;10.266;2024-02-15T18:23:57;8.70;;;7.73;;
20593;SDS011;10455;48.732;10.266;2024-02-15T18:29:00;6.70;;;6.20;;
20593;SDS011;10455;48.732;10.266;2024-02-15T18:34:01;8.37;;;7.30;;
20593;SDS011;10455;48.732;10.266;2024-02-15T18:39:08;10.90;;;9.73;;
20593;SDS011;10455;48.732;10.266;2024-02-15T18:44:10;6.97;;;6.27;;
20593;SDS011;10455;48.732;10.266;2024-02-15T18:49:12;5.60;;;5.20;;
20593;SDS011;10455;48.732;10.266;2024-02-15T18:54:16;6.20;;;5.80;;
20593;SDS011;10455;48.732;10.266;2024-02-15T18:59:18;6.63;;;6.03;;
20593;SDS011;10455;48.732;10.266;2024-02-15T19:04:20;6.70;;;6.20;;
20593;SDS011;10455;48.732;10.266;2024-02-15T19:09:23;7.67;;;7.00;;
20593;SDS011;10455;48.732;10.266;2024-02-15T19:14:25;9.80;;;8.70;;
20593;SDS011;10455;48.732;10.266;2024-02-15T19:19:27;8.97;;;8.17;;
20593;SDS011;10455;48.732;10.266;2024-02-15T19:24:30;9.03;;;8.13;;
20593;SDS011;10455;48.732;10.266;2024-02-15T19:29:32;11.93;;;9.97;;
20593;SDS011;10455;48.732;10.266;2024-02-15T19:34:34;38.23;;;25.00;;
20593;SDS011;10455;48.732;10.266;2024-02-15T19:39:37;20.93;;;15.10;;
20593;SDS011;10455;48.732;10.266;2024-02-15T19:44:41;18.77;;;13.60;;
20593;SDS011;10455;48.732;10.266;2024-02-15T19:49:44;24.47;;;16.17;;
20593;SDS011;10455;48.732;10.266;2024-02-15T19:54:48;22.17;;;17.67;;
20593;SDS011;10455;48.732;10.266;2024-02-15T19:59:50;25.70;;;18.93;;
20593;SDS011;10455;48.732;10.266;2024-02-15T20:04:53;20.47;;;18.27;;
20593;SDS011;10455;48.732;10.266;2024-02-15T20:09:56;11.97;;;10.17;;
20593;SDS011;10455;48.732;10.266;2024-02-15T20:14:58;7.47;;;6.73;;
20593;SDS011;10455;48.732;10.266;2024-02-15T20:37:05;8.20;;;7.50;;
20593;SDS011;10455;48.732;10.266;2024-02-15T20:42:08;8.10;;;7.30;;
20593;SDS011;10455;48.732;10.266;2024-02-15T20:47:10;7.57;;;6.80;;
20593;SDS011;10455;48.732;10.266;2024-02-15T20:52:14;7.97;;;6.63;;
20593;SDS011;10455;48.732;10.266;2024-02-15T20:57:21;8.30;;;7.60;;
20593;SDS011;10455;48.732;10.266;2024-02-15T21:02:29;7.50;;;6.90;;
20593;SDS011;10455;48.732;10.266;2024-02-15T21:07:34;30.80;;;19.70;;
20593;SDS011;10455;48.732;10.266;2024-02-15T21:12:39;10.30;;;9.20;;
20593;SDS011;10455;48.732;10.266;2024-02-15T21:18:00;9.90;;;8.93;;
20593;SDS011;10455;48.732;10.266;2024-02-15T21:23:03;7.83;;;7.13;;
20593;SDS011;10455;48.732;10.266;2024-02-15T21:28:05;9.60;;;8.63;;
20593;SDS011;10455;48.732;10.266;2024-02-15T21:33:08;10.70;;;9.70;;
20593;SDS011;10455;48.732;10.266;2024-02-15T21:38:11;10.70;;;9.50;;
20593;SDS011;10455;48.732;10.266;2024-02-15T21:43:13;9.00;;;8.20;;
20593;SDS011;10455;48.732;10.266;2024-02-15T21:48:16;10.33;;;9.17;;
20593;SDS011;10455;48.732;10.266;2024-02-15T21:53:20;10.17;;;9.13;;
20593;SDS011;10455;48.732;10.266;2024-02-15T21:58:21;11.07;;;9.77;;
20593;SDS011;10455;48.732;10.266;2024-02-15T22:03:23;9.97;;;8.80;;
20593;SDS011;10455;48.732;10.266;2024-02-15T22:08:27;8.83;;;8.03;;
20593;SDS011;10455;48.732;10.266;2024-02-15T22:13:28;11.20;;;10.00;;
20593;SDS011;10455;48.732;10.266;2024-02-15T22:18:32;31.57;;;20.67;;
20593;SDS011;10455;48.732;10.266;2024-02-15T22:23:36;21.17;;;15.57;;
20593;SDS011;10455;48.732;10.266;2024-02-15T22:28:40;21.43;;;15.27;;
20593;SDS011;10455;48.732;10.266;2024-02-15T22:33:42;14.00;;;12.23;;
20593;SDS011;10455;48.732;10.266;2024-02-15T22:38:45;16.90;;;15.07;;
20593;SDS011;10455;48.732;10.266;2024-02-15T22:43:47;17.23;;;14.33;;
20593;SDS011;10455;48.732;10.266;2024-02-15T22:48:49;13.47;;;12.10;;
20593;SDS011;10455;48.732;10.266;2024-02-15T22:53:53;16.57;;;13.07;;
20593;SDS011;10455;48.732;10.266;2024-02-15T22:58:55;12.17;;;10.97;;
20593;SDS011;10455;48.732;10.266;2024-02-15T23:03:57;12.30;;;9.57;;
20593;SDS011;10455;48.732;10.266;2024-02-15T23:09:00;10.87;;;9.80;;
20593;SDS011;10455;48.732;10.266;2024-02-15T23:14:02;11.67;;;10.47;;
20593;SDS011;10455;48.732;10.266;2024-02-15T23:19:06;12.30;;;11.10;;
20593;SDS011;10455;48.732;10.266;2024-02-15T23:24:11;10.93;;;9.83;;
20593;SDS011;10455;48.732;10.266;2024-02-15T23:29:13;14.37;;;12.87;;
20593;SDS011;10455;48.732;10.266;2024-02-15T23:34:15;13.57;;;12.23;;
20593;SDS011;10455;48.732;10.266;2024-02-15T23:39:19;13.73;;;12.43;;
20593;SDS011;10455;48.732;10.266;2024-02-15T23:44:47;12.23;;;11.03;;
20593;SDS011;10455;48.732;10.266;2024-02-15T23:49:48;11.07;;;10.10;;
20593;SDS011;10455;48.732;10.266;2024-02-15T23:54:52;10.50;;;9.60;;
20593;SDS011;10455;48.732;10.266;2024-02-15T23:59:54;10.47;;;9.23;;
